Time;durP1;ratioP1;P1;durP2;ratioP2;P2;SDS_P1;SDS_P2;PMS_P1;PMS_P2;Temp;Humidity;BMP_temperature;BMP_pressure;BME280_temperature;BME280_humidity;BME280_pressure;Samples;Min_cycle;Max_cycle;Signal;HPM_P1;HPM_P2
2021/05/11 00:02:20;;;;;;;4.62;2.62;;;;;;;8.25;53.12;100735.19;1787654;80;22134;-75
2021/05/11 00:04:48;;;;;;;9.18;2.62;;;;;;;8.35;52.78;100736.80;1776761;80;20976;-74
2021/05/11 00:07:15;;;;;;;4.78;2.67;;;;;;;8.42;52.66;100743.36;1777439;78;21175;-74
2021/05/11 00:09:42;;;;;;;4.58;2.37;;;;;;;8.51;52.29;100740.97;1787839;80;21484;-75
2021/05/11 00:12:10;;;;;;;4.75;2.60;;;;;;;8.62;52.15;100738.95;1788758;80;21059;-75
2021/05/11 00:14:38;;;;;;;5.30;2.60;;;;;;;8.72;52.30;100740.03;1789536;78;22505;-74
2021/05/11 00:17:05;;;;;;;3.83;2.20;;;;;;;8.77;52.23;100737.93;1789766;78;21260;-74
2021/05/11 00:19:35;;;;;;;4.05;2.35;;;;;;;8.83;52.21;100736.69;1788060;79;21071;-74
2021/05/11 00:22:02;;;;;;;3.87;2.30;;;;;;;8.89;51.97;100735.83;1788455;80;21075;-74
2021/05/11 00:24:30;;;;;;;5.80;2.77;;;;;;;9.00;51.33;100728.99;1788845;78;21157;-75
2021/05/11 00:26:57;;;;;;;3.60;2.25;;;;;;;9.12;51.11;100723.73;1786388;80;22784;-74
2021/05/11 00:29:24;;;;;;;3.67;2.00;;;;;;;9.21;50.89;100718.78;1745618;80;21171;-74
2021/05/11 00:31:52;;;;;;;6.45;2.55;;;;;;;9.28;50.85;100712.16;1759432;81;21365;-74
2021/05/11 00:34:20;;;;;;;4.08;2.60;;;;;;;9.35;50.16;100703.69;1759418;80;21068;-75
2021/05/11 00:36:47;;;;;;;4.25;2.05;;;;;;;9.45;49.91;100706.53;1760322;80;21132;-74
2021/05/11 00:39:15;;;;;;;3.87;2.17;;;;;;;9.51;49.71;100705.28;1759484;80;22109;-74
2021/05/11 00:41:43;;;;;;;3.27;1.95;;;;;;;9.56;49.73;100697.91;1759875;80;21173;-74
2021/05/11 00:44:21;;;;;;;6.30;2.30;;;;;;;9.58;49.94;100692.88;1759593;80;21136;-74
2021/05/11 00:47:00;;;;;;;3.98;2.30;;;;;;;9.60;49.59;100684.38;1758908;80;21096;-75
2021/05/11 00:49:29;;;;;;;6.25;2.30;;;;;;;9.66;49.04;100680.01;1757210;81;21164;-75
2021/05/11 00:51:58;;;;;;;5.03;2.27;;;;;;;9.74;48.92;100675.48;1757953;80;23045;-76
2021/05/11 00:54:28;;;;;;;3.42;2.00;;;;;;;9.77;48.93;100674.45;1732932;80;21120;-74
2021/05/11 00:56:56;;;;;;;4.10;2.00;;;;;;;9.80;48.70;100677.70;1757614;81;21140;-75
2021/05/11 00:59:26;;;;;;;4.50;2.33;;;;;;;9.83;48.46;100673.51;1758589;81;21533;-74
2021/05/11 01:01:56;;;;;;;4.65;2.00;;;;;;;9.86;48.19;100671.99;1754273;81;21179;-74
2021/05/11 01:04:25;;;;;;;2.72;2.00;;;;;;;9.88;48.29;100669.23;1733331;81;23376;-75
2021/05/11 01:06:54;;;;;;;6.00;1.98;;;;;;;9.90;47.54;100669.97;1757166;80;21093;-76
2021/05/11 01:09:24;;;;;;;3.55;2.08;;;;;;;9.94;47.67;100672.73;1758132;80;21064;-76
2021/05/11 01:11:54;;;;;;;2.50;1.80;;;;;;;9.96;47.01;100672.17;1757619;81;21050;-76
2021/05/11 01:14:25;;;;;;;3.77;1.95;;;;;;;10.01;47.04;100664.75;1728946;81;21056;-75
2021/05/11 01:16:56;;;;;;;2.70;1.90;;;;;;;10.04;46.43;100664.08;1759703;80;22026;-75
2021/05/11 01:22:06;;;;;;;3.60;2.00;;;;;;;10.14;45.68;100663.41;1756261;81;21556;-75
2021/05/11 01:24:30;;;;;;;4.05;1.95;;;;;;;10.15;45.37;100655.38;1758212;81;21416;-74
2021/05/11 01:27:05;;;;;;;4.08;2.00;;;;;;;10.18;45.44;100659.58;1758408;80;21170;-74
2021/05/11 01:53:47;;;;;;;2.50;1.70;;;;;;;10.17;45.45;100673.25;1787682;80;21049;-75
2021/05/11 01:59:09;;;;;;;2.50;1.85;;;;;;;10.23;45.48;100667.56;1790802;80;21498;-74
2021/05/11 02:23:11;;;;;;;4.12;1.92;;;;;;;10.46;44.57;100663.22;1772070;80;22143;-75
2021/05/11 02:25:38;;;;;;;3.33;2.02;;;;;;;10.48;44.84;100657.81;1793318;79;21567;-75
2021/05/11 02:28:05;;;;;;;4.53;1.98;;;;;;;10.47;44.43;100655.66;1760089;80;21244;-76
2021/05/11 02:30:34;;;;;;;3.70;1.87;;;;;;;10.49;43.85;100662.98;1773786;80;21124;-75
2021/05/11 02:33:04;;;;;;;3.50;1.87;;;;;;;10.51;44.14;100657.58;1775799;80;21062;-74
2021/05/11 02:35:34;;;;;;;5.70;2.00;;;;;;;10.51;43.78;100657.10;1787127;80;22063;-75
2021/05/11 02:38:01;;;;;;;2.92;2.00;;;;;;;10.53;43.69;100651.73;1817071;79;21078;-74
2021/05/11 02:40:29;;;;;;;4.20;2.20;;;;;;;10.54;43.74;100656.89;1811286;78;21413;-76
2021/05/11 02:45:42;;;;;;;4.37;2.10;;;;;;;10.57;43.78;100648.73;1884919;76;22702;-74
2021/05/11 02:48:10;;;;;;;3.90;2.10;;;;;;;10.52;43.84;100642.12;1795187;79;21117;-74
2021/05/11 02:50:37;;;;;;;2.62;1.95;;;;;;;10.53;44.00;100638.53;1743020;81;22120;-74
2021/05/11 02:53:05;;;;;;;2.67;1.98;;;;;;;10.54;44.52;100642.37;1786121;79;21478;-75
2021/05/11 02:55:33;;;;;;;3.00;1.80;;;;;;;10.52;44.34;100641.65;1812347;78;21197;-74
2021/05/11 02:58:00;;;;;;;3.40;2.00;;;;;;;10.53;44.25;100641.17;1834005;77;21105;-75
2021/05/11 03:00:28;;;;;;;3.42;2.30;;;;;;;10.54;44.71;100638.41;1801947;77;21145;-75
2021/05/11 03:02:55;;;;;;;6.60;2.12;;;;;;;10.53;43.98;100640.69;1837188;77;22032;-74
2021/05/11 03:05:23;;;;;;;2.67;1.80;;;;;;;10.55;44.17;100640.56;1833109;77;21081;-74
2021/05/11 03:07:51;;;;;;;3.70;1.98;;;;;;;10.56;44.25;100632.52;1817246;77;21599;-74
2021/05/11 03:10:18;;;;;;;3.22;2.20;;;;;;;10.58;44.36;100628.44;1836281;77;21066;-75
2021/05/11 03:12:46;;;;;;;2.83;1.90;;;;;;;10.58;44.63;100625.80;1827130;77;21050;-75
2021/05/11 03:15:13;;;;;;;4.65;2.00;;;;;;;10.57;44.71;100626.28;1776309;79;22110;-74
2021/05/11 03:17:41;;;;;;;3.70;2.15;;;;;;;10.58;44.68;100624.00;1723651;81;21146;-74
2021/05/11 03:20:10;;;;;;;2.27;1.70;;;;;;;10.58;44.77;100629.28;1765242;79;21176;-74
2021/05/11 03:22:38;;;;;;;3.25;1.98;;;;;;;10.61;44.86;100633.48;1715415;82;21157;-74
2021/05/11 03:25:07;;;;;;;4.67;1.98;;;;;;;10.63;44.61;100622.83;1759622;80;21045;-74
2021/05/11 03:27:35;;;;;;;3.98;2.15;;;;;;;10.65;44.87;100624.39;1722734;81;21889;-74
2021/05/11 03:30:04;;;;;;;3.98;2.27;;;;;;;10.68;44.85;100629.91;1821685;77;21107;-76
2021/05/11 03:32:32;;;;;;;2.60;1.90;;;;;;;10.71;44.50;100624.38;1810249;77;21562;-74
2021/05/11 03:35:00;;;;;;;2.35;1.80;;;;;;;10.75;44.58;100624.53;1815791;77;21172;-74
2021/05/11 03:37:27;;;;;;;3.67;2.22;;;;;;;10.80;44.64;100628.48;1774331;80;21501;-74
2021/05/11 03:39:54;;;;;;;3.35;1.82;;;;;;;10.84;44.62;100627.80;1722386;81;22056;-74
2021/05/11 03:45:12;;;;;;;2.85;1.90;;;;;;;10.97;44.77;100631.65;1880207;76;22292;-74
2021/05/11 03:47:48;;;;;;;5.05;1.90;;;;;;;10.99;44.55;100618.67;1884550;76;23216;-74
2021/05/11 03:50:23;;;;;;;3.60;2.02;;;;;;;11.03;44.92;100620.14;1826180;76;27742;-74
2021/05/11 03:53:01;;;;;;;4.12;1.98;;;;;;;11.12;44.54;100615.94;1861684;76;23250;-75
2021/05/11 03:55:51;;;;;;;4.60;1.85;;;;;;;11.13;44.88;100616.30;1821522;77;21146;-74
2021/05/11 03:58:26;;;;;;;2.55;1.67;;;;;;;11.20;45.58;100618.83;1878437;75;22606;-74
2021/05/11 04:01:02;;;;;;;4.83;2.20;;;;;;;11.23;45.10;100615.10;1859646;76;27716;-75
2021/05/11 04:03:57;;;;;;;4.22;1.80;;;;;;;11.33;44.76;100614.25;1869103;75;22714;-75
2021/05/11 04:06:32;;;;;;;3.40;1.80;;;;;;;11.40;44.84;100617.27;1880359;74;22653;-74
2021/05/11 04:17:44;;;;;;;4.42;1.90;;;;;;;11.49;44.05;100603.80;1862686;76;22641;-73
2021/05/11 04:20:19;;;;;;;2.77;1.92;;;;;;;11.51;44.25;100605.34;1882137;76;22640;-77
2021/05/11 04:22:55;;;;;;;3.67;1.70;;;;;;;11.54;43.96;100609.06;1870947;76;23008;-75
2021/05/11 04:25:37;;;;;;;2.92;1.80;;;;;;;11.60;43.91;100605.10;1887030;74;23294;-76
2021/05/11 04:28:12;;;;;;;3.10;1.90;;;;;;;11.62;44.30;100604.48;1870551;76;22699;-74
2021/05/11 04:30:54;;;;;;;4.12;2.02;;;;;;;11.66;44.32;100601.46;1882538;74;22332;-78
2021/05/11 04:33:39;;;;;;;2.77;1.60;;;;;;;11.64;43.70;100605.20;1823720;77;21146;-81
2021/05/11 04:36:15;;;;;;;5.30;1.70;;;;;;;11.67;43.75;100599.66;1880703;76;22796;-81
2021/05/11 04:38:56;;;;;;;6.33;1.77;;;;;;;11.68;43.76;100600.05;1875740;74;22646;-82
2021/05/11 04:41:38;;;;;;;4.70;1.80;;;;;;;11.68;43.70;100591.62;1887729;76;22862;-93
2021/05/11 04:44:23;;;;;;;3.67;1.70;;;;;;;11.71;44.36;100592.69;1905182;74;22643;-91
2021/05/11 04:47:14;;;;;;;6.40;2.10;;;;;;;11.75;44.18;100590.14;1887071;76;23313;-87
2021/05/11 04:49:53;;;;;;;2.35;1.72;;;;;;;11.79;44.17;100584.62;1879328;76;22669;-85
2021/05/11 04:52:38;;;;;;;2.70;1.90;;;;;;;11.78;44.22;100582.94;1836026;77;21049;-77
2021/05/11 04:55:20;;;;;;;3.70;1.95;;;;;;;11.85;44.68;100577.03;1887592;76;22677;-76
2021/05/11 04:57:56;;;;;;;3.83;1.80;;;;;;;11.88;44.23;100574.64;1809960;78;22854;-78
2021/05/11 05:00:31;;;;;;;3.25;1.55;;;;;;;11.92;43.96;100580.03;1872532;76;22662;-77
2021/05/11 05:03:10;;;;;;;5.40;2.17;;;;;;;11.95;44.10;100577.95;1860124;75;22666;-77
2021/05/11 05:05:50;;;;;;;4.08;2.05;;;;;;;11.97;44.60;100580.02;1877208;76;22680;-77
2021/05/11 05:08:26;;;;;;;6.00;2.08;;;;;;;12.02;44.72;100583.60;1886532;76;22694;-78
2021/05/11 05:11:01;;;;;;;2.42;1.87;;;;;;;12.06;44.29;100586.34;1876843;74;22727;-78
2021/05/11 05:13:36;;;;;;;3.10;1.80;;;;;;;12.10;44.76;100590.44;1887013;76;22730;-78
2021/05/11 05:16:12;;;;;;;4.10;1.98;;;;;;;12.15;44.81;100592.20;1909931;74;22674;-77
2021/05/11 05:18:47;;;;;;;2.58;1.70;;;;;;;12.21;44.71;100582.92;1871778;75;23188;-77
2021/05/11 05:21:29;;;;;;;3.20;1.80;;;;;;;12.28;44.81;100595.54;1887282;76;22706;-78
2021/05/11 05:24:10;;;;;;;3.25;1.82;;;;;;;12.34;45.09;100590.20;1887808;74;22757;-77
2021/05/11 05:26:47;;;;;;;5.90;1.80;;;;;;;12.41;45.19;100592.70;1888492;76;22706;-77
2021/05/11 05:29:19;;;;;;;4.12;2.02;;;;;;;12.50;45.55;100595.06;1860295;76;22966;-77
2021/05/11 05:31:55;;;;;;;3.55;1.80;;;;;;;12.57;46.13;100589.13;1885923;75;22630;-77
2021/05/11 05:34:30;;;;;;;4.33;1.70;;;;;;;12.68;45.86;100582.92;1883872;74;22658;-77
2021/05/11 05:37:12;;;;;;;4.28;1.90;;;;;;;12.77;45.62;100579.97;1899660;74;23285;-77
2021/05/11 05:39:57;;;;;;;3.37;1.90;;;;;;;12.83;45.74;100574.12;1854415;76;22814;-77
2021/05/11 05:42:37;;;;;;;3.35;2.00;;;;;;;12.89;46.09;100575.78;1886443;74;23322;-77
2021/05/11 05:45:19;;;;;;;4.28;2.35;;;;;;;13.01;46.06;100572.55;1884164;76;22365;-76
2021/05/11 05:48:05;;;;;;;4.15;1.72;;;;;;;13.05;45.94;100570.49;1837940;77;21125;-76
2021/05/11 05:50:40;;;;;;;5.65;1.92;;;;;;;13.15;45.35;100567.39;1844217;76;22627;-82
2021/05/11 05:53:23;;;;;;;3.42;1.60;;;;;;;13.20;45.82;100558.56;1873573;76;22603;-81
2021/05/11 05:56:05;;;;;;;2.67;1.80;;;;;;;13.20;45.59;100562.55;1832101;78;21039;-83
2021/05/11 05:58:41;;;;;;;2.75;1.60;;;;;;;13.27;45.43;100561.53;1885337;76;22738;-86
2021/05/11 06:01:16;;;;;;;3.80;1.57;;;;;;;13.31;45.34;100559.78;1875008;76;22616;-85
2021/05/11 06:04:12;;;;;;;4.30;2.40;;;;;;;13.34;45.72;100564.00;1778062;79;21433;-75
2021/05/11 06:06:48;;;;;;;3.08;1.98;;;;;;;13.45;45.61;100563.41;1860087;76;24350;-76
2021/05/11 06:09:24;;;;;;;5.80;2.00;;;;;;;13.54;45.58;100560.42;1867502;75;22686;-77
2021/05/11 06:17:24;;;;;;;3.47;1.65;;;;;;;13.76;44.35;100546.06;1885986;76;22713;-74
2021/05/11 06:20:00;;;;;;;3.87;2.50;;;;;;;13.78;43.99;100536.63;1876185;76;22659;-76
2021/05/11 06:22:55;;;;;;;3.33;2.10;;;;;;;13.81;44.04;100543.02;1861490;75;22627;-79
2021/05/11 06:25:30;;;;;;;3.35;1.82;;;;;;;13.86;44.39;100539.44;1871654;75;22646;-76
2021/05/11 06:28:16;;;;;;;2.20;1.80;;;;;;;13.94;44.67;100546.23;1890307;74;23278;-76
2021/05/11 06:30:59;;;;;;;3.37;1.90;;;;;;;13.99;44.28;100542.64;1826915;77;21101;-74
2021/05/11 06:33:34;;;;;;;3.30;1.62;;;;;;;14.04;44.10;100533.78;1894009;74;23214;-74
2021/05/11 06:36:10;;;;;;;2.47;1.50;;;;;;;14.05;42.98;100526.16;1873546;76;23195;-73
2021/05/11 06:38:45;;;;;;;3.55;2.30;;;;;;;14.03;43.34;100526.31;1888541;76;22627;-73
2021/05/11 06:41:21;;;;;;;3.85;2.30;;;;;;;14.08;43.50;100521.89;1866931;76;22667;-73
2021/05/11 06:44:02;;;;;;;3.10;1.82;;;;;;;14.14;43.77;100520.01;1910064;74;22578;-72
2021/05/11 06:55:07;;;;;;;2.70;1.55;;;;;;;14.45;43.79;100509.22;1866430;76;22802;-73
2021/05/11 06:57:43;;;;;;;2.52;1.60;;;;;;;14.46;43.92;100505.58;1884193;76;23189;-73
2021/05/11 07:00:24;;;;;;;2.47;1.60;;;;;;;14.51;44.58;100506.00;1879317;75;22700;-74
2021/05/11 07:03:06;;;;;;;6.30;1.60;;;;;;;14.66;44.69;100500.55;1848381;75;22670;-73
2021/05/11 07:05:43;;;;;;;4.00;1.27;;;;;;;14.82;44.89;100486.66;1852294;76;22668;-82
2021/05/11 07:14:05;;;;;;;3.65;1.60;;;;;;;15.22;44.81;100474.83;1872186;75;22739;-80
2021/05/11 07:16:47;;;;;;;3.83;1.37;;;;;;;15.31;45.38;100473.44;1859489;76;22651;-79
2021/05/11 07:19:22;;;;;;;2.30;1.30;;;;;;;15.41;45.62;100467.56;1877258;76;22745;-80
2021/05/11 07:22:03;;;;;;;4.30;1.20;;;;;;;15.60;45.61;100472.41;1853631;76;22676;-79
2021/05/11 07:24:39;;;;;;;5.22;1.40;;;;;;;15.82;45.37;100466.64;1882995;74;22789;-85
2021/05/11 07:27:34;;;;;;;6.05;1.10;;;;;;;16.09;45.44;100464.86;1887201;76;22725;-83
2021/05/11 07:32:44;;;;;;;2.00;1.10;;;;;;;16.66;45.51;100462.56;1845904;76;22723;-87
2021/05/11 07:35:20;;;;;;;1.72;0.90;;;;;;;16.93;44.75;100438.88;1853033;76;23347;-82
2021/05/11 07:37:55;;;;;;;4.42;0.98;;;;;;;17.17;44.05;100438.95;1868286;76;22698;-82
2021/05/11 07:40:31;;;;;;;5.90;1.30;;;;;;;17.36;43.83;100444.50;1878475;74;22766;-83
2021/05/11 07:43:07;;;;;;;2.50;1.00;;;;;;;17.50;43.14;100433.69;1864706;76;22660;-80
2021/05/11 08:17:18;;;;;;;5.40;1.20;;;;;;;19.15;41.99;100410.81;1852320;76;22632;-78
2021/05/11 08:29:05;;;;;;;5.65;1.30;;;;;;;19.79;40.56;100405.20;1868449;76;22596;-79
2021/05/11 08:31:46;;;;;;;4.55;1.30;;;;;;;19.89;40.02;100405.27;1887814;76;22654;-79
2021/05/11 08:34:32;;;;;;;3.27;1.10;;;;;;;19.87;39.17;100397.89;1793837;79;21146;-79
2021/05/11 08:37:16;;;;;;;8.50;1.80;;;;;;;19.87;39.99;100395.72;1860062;76;22767;-78
2021/05/11 08:39:58;;;;;;;3.42;1.30;;;;;;;19.85;40.09;100387.03;1884244;74;22766;-78
2021/05/11 08:42:39;;;;;;;3.62;1.10;;;;;;;19.96;40.69;100386.08;1846236;76;22613;-79
2021/05/11 08:45:21;;;;;;;5.75;1.62;;;;;;;20.25;39.98;100379.09;1887390;75;22729;-79
2021/05/11 08:48:02;;;;;;;2.72;1.45;;;;;;;20.48;39.93;100373.17;1881337;76;22655;-78
2021/05/11 08:50:48;;;;;;;5.22;1.10;;;;;;;20.63;39.33;100373.14;1849595;76;22814;-79
2021/05/11 09:05:28;;;;;;;3.37;1.30;;;;;;;21.08;38.55;100366.66;1888627;76;22631;-79
2021/05/11 09:27:37;;;;;;;8.60;1.55;;;;;;;21.33;37.80;100339.47;1888936;75;22701;-73
2021/05/11 09:33:13;;;;;;;5.17;1.65;;;;;;;21.14;37.22;100324.79;1857077;76;22787;-80
2021/05/11 10:48:40;;;;;;;5.90;1.55;;;;;;;24.90;34.06;100258.39;1873605;76;22612;-79
2021/05/11 10:51:28;;;;;;;6.75;1.27;;;;;;;25.09;32.01;100255.60;1888554;76;22667;-80
2021/05/11 10:54:07;;;;;;;11.55;1.50;;;;;;;25.18;32.18;100245.33;1888251;76;22646;-79
2021/05/11 10:56:48;;;;;;;5.95;1.32;;;;;;;25.38;32.34;100251.91;1888613;76;22701;-79
2021/05/11 10:59:46;;;;;;;5.90;1.30;;;;;;;25.57;32.07;100247.37;1888623;75;22088;-78
2021/05/11 11:02:26;;;;;;;7.05;1.42;;;;;;;25.78;30.46;100240.23;1859165;76;22707;-80
2021/05/11 11:05:10;;;;;;;12.65;1.70;;;;;;;25.93;30.63;100246.09;1759411;80;21078;-80
2021/05/11 11:07:52;;;;;;;4.10;1.20;;;;;;;26.21;30.05;100238.78;1888605;76;23302;-80
2021/05/11 11:10:30;;;;;;;6.08;1.40;;;;;;;26.29;29.81;100237.66;1886177;76;22634;-79
2021/05/11 11:13:11;;;;;;;8.63;1.40;;;;;;;26.07;30.31;100250.84;1888495;76;23255;-79
2021/05/11 11:15:47;;;;;;;7.67;1.67;;;;;;;25.81;31.20;100243.84;1888594;76;22698;-80
2021/05/11 11:18:22;;;;;;;3.90;1.10;;;;;;;25.65;32.10;100241.15;1888607;76;22635;-80
2021/05/11 11:21:20;;;;;;;3.08;1.20;;;;;;;25.68;31.80;100238.55;1909973;74;22693;-80
2021/05/11 11:23:51;;;;;;;6.50;1.27;;;;;;;25.58;31.45;100239.06;1872337;76;27733;-79
2021/05/11 11:26:30;;;;;;;3.33;1.12;;;;;;;25.65;32.21;100236.27;1873600;76;22776;-80
2021/05/11 11:29:12;;;;;;;6.67;1.32;;;;;;;25.87;31.57;100232.66;1888562;76;22666;-79
2021/05/11 11:31:54;;;;;;;6.25;1.37;;;;;;;25.91;31.79;100221.66;1888553;76;22605;-80
2021/05/11 11:34:36;;;;;;;6.53;1.70;;;;;;;26.11;31.23;100220.90;1904667;74;22734;-79
2021/05/11 11:37:14;;;;;;;5.03;1.50;;;;;;;26.37;31.37;100221.62;1909953;74;22615;-77
2021/05/11 11:39:53;;;;;;;10.00;1.52;;;;;;;26.57;30.24;100212.72;1873591;76;22631;-78
2021/05/11 11:42:40;;;;;;;5.95;1.25;;;;;;;26.79;29.90;100207.59;1889997;76;22838;-77
2021/05/11 11:45:27;;;;;;;9.68;1.90;;;;;;;26.88;29.72;100218.93;1834753;77;21043;-77
2021/05/11 11:48:10;;;;;;;8.53;1.45;;;;;;;26.61;29.31;100226.63;1888580;75;22724;-79
2021/05/11 11:50:58;;;;;;;4.90;1.20;;;;;;;26.46;30.61;100219.75;1888576;76;22635;-79
2021/05/11 11:53:37;;;;;;;9.80;1.50;;;;;;;26.55;30.62;100227.03;1888624;76;23235;-79
2021/05/11 11:59:06;;;;;;;3.47;1.40;;;;;;;26.43;30.02;100206.65;1888482;75;22654;-79
2021/05/11 12:01:41;;;;;;;8.80;1.50;;;;;;;26.58;30.77;100208.95;1888491;76;22766;-80
2021/05/11 12:04:22;;;;;;;7.33;1.50;;;;;;;26.84;30.43;100198.78;1888612;76;22639;-79
2021/05/11 12:07:09;;;;;;;8.13;1.62;;;;;;;27.17;28.94;100200.97;1872372;76;27789;-79
2021/05/11 12:09:47;;;;;;;4.17;1.40;;;;;;;27.41;28.30;100193.16;1907230;74;22667;-79
2021/05/11 12:12:32;;;;;;;11.10;1.52;;;;;;;27.28;28.08;100197.44;1816459;79;21071;-80
2021/05/11 12:15:19;;;;;;;5.55;1.85;;;;;;;26.90;28.43;100200.02;1888599;76;22823;-79
2021/05/11 12:20:47;;;;;;;9.78;1.60;;;;;;;26.48;30.23;100214.10;1873636;75;22741;-79
2021/05/11 12:23:22;;;;;;;10.00;1.70;;;;;;;26.68;30.90;100205.16;1829437;76;38042;-79
2021/05/11 12:26:05;;;;;;;9.35;2.08;;;;;;;27.08;30.58;100192.36;1888530;76;22632;-80
2021/05/11 12:28:44;;;;;;;10.88;2.00;;;;;;;27.41;29.92;100201.28;1888611;76;22662;-79
2021/05/11 12:31:25;;;;;;;6.40;1.77;;;;;;;27.78;30.14;100203.73;1770488;79;22807;-79
2021/05/11 12:34:24;;;;;;;7.80;2.12;;;;;;;28.23;28.40;100205.22;1861870;75;22684;-80
2021/05/11 12:37:03;;;;;;;9.48;2.10;;;;;;;27.92;28.80;100199.17;1847008;76;22633;-80
2021/05/11 12:39:54;;;;;;;5.20;1.70;;;;;;;27.92;28.80;100199.17;1816403;78;21053;-80
2021/05/11 12:42:31;;;;;;;10.08;1.80;;;;;;;27.60;29.04;100199.23;1888631;75;22654;-79
2021/05/11 12:47:53;;;;;;;5.97;1.85;;;;;;;27.78;30.22;100187.45;1776913;79;22777;-79
2021/05/11 12:50:39;;;;;;;5.55;1.87;;;;;;;27.72;29.73;100193.32;1872848;75;23219;-80
2021/05/11 12:56:47;;;;;;;4.55;2.00;;;;;;;27.65;29.54;100193.44;1910929;74;22736;-79
2021/05/11 13:02:29;;;;;;;10.03;2.62;;;;;;;27.15;29.62;100189.02;1872778;75;22654;-81
2021/05/11 13:22:36;;;;;;;7.03;2.00;;;;;;;27.82;29.71;100193.53;1873533;75;23234;-80
2021/05/11 13:31:22;;;;;;;7.17;2.30;;;;;;;28.01;31.04;100200.16;1872855;75;22664;-81
2021/05/11 13:34:00;;;;;;;5.53;2.37;;;;;;;28.34;28.70;100195.40;1893634;74;28583;-80
2021/05/11 13:36:32;;;;;;;7.10;2.40;;;;;;;28.43;28.83;100200.20;1909852;74;22616;-80
2021/05/11 13:39:17;;;;;;;11.65;2.50;;;;;;;28.38;28.76;100202.84;1849753;77;21261;-80
2021/05/11 13:41:58;;;;;;;3.95;2.42;;;;;;;28.10;28.51;100204.97;1888613;76;22802;-80
2021/05/11 13:44:34;;;;;;;6.60;2.40;;;;;;;27.38;30.05;100205.27;1845281;76;22687;-79
2021/05/11 13:47:09;;;;;;;7.30;2.62;;;;;;;27.42;29.78;100203.47;1873609;76;22613;-80
2021/05/11 13:49:44;;;;;;;8.88;2.90;;;;;;;27.27;30.51;100203.39;1873611;75;22685;-78
2021/05/11 13:52:20;;;;;;;6.22;2.70;;;;;;;27.36;30.72;100207.94;1873600;76;22612;-79
2021/05/11 13:54:59;;;;;;;8.45;2.70;;;;;;;27.51;30.43;100205.59;1888613;76;22628;-80
2021/05/11 14:03:26;;;;;;;8.10;2.87;;;;;;;27.11;30.85;100195.95;1888629;76;22328;-80
2021/05/11 14:06:07;;;;;;;6.00;3.10;;;;;;;26.88;30.48;100202.67;1888417;76;22670;-80
2021/05/11 14:08:43;;;;;;;6.47;2.95;;;;;;;26.50;30.83;100203.33;1890006;76;22670;-79
2021/05/11 14:11:18;;;;;;;6.08;3.22;;;;;;;26.31;31.44;100200.87;1849498;76;22653;-80
2021/05/11 14:14:06;;;;;;;7.47;3.02;;;;;;;26.24;31.62;100203.66;1808468;79;21052;-80
2021/05/11 14:16:42;;;;;;;7.80;2.92;;;;;;;26.22;31.94;100205.77;1887948;75;22636;-80
2021/05/11 14:19:18;;;;;;;8.98;3.35;;;;;;;25.93;31.98;100208.73;1829399;76;28300;-80
2021/05/11 14:21:54;;;;;;;9.97;3.40;;;;;;;25.80;32.93;100212.95;1872510;76;27820;-81
2021/05/11 14:24:30;;;;;;;5.28;2.80;;;;;;;25.94;33.79;100218.50;1909933;74;22682;-81
2021/05/11 14:27:06;;;;;;;6.70;3.40;;;;;;;26.21;33.60;100223.89;1872506;76;48969;-80
2021/05/11 14:29:41;;;;;;;9.03;3.20;;;;;;;26.59;32.65;100226.03;1888623;76;22641;-77
2021/05/11 14:32:17;;;;;;;10.50;3.35;;;;;;;26.70;31.84;100231.48;1906923;74;23284;-80
2021/05/11 14:34:58;;;;;;;7.70;2.65;;;;;;;26.42;32.23;100253.75;1859843;76;22680;-75
2021/05/11 14:37:39;;;;;;;10.43;2.22;;;;;;;25.83;34.92;100303.13;1868991;76;22682;-79
2021/05/11 14:40:20;;;;;;;10.15;2.15;;;;;;;24.49;37.60;100317.20;1872872;75;22634;-83
2021/05/11 14:43:03;;;;;;;13.65;2.30;;;;;;;23.24;40.79;100324.06;1872542;76;22537;-82
2021/05/11 14:45:44;;;;;;;8.90;2.10;;;;;;;22.26;43.03;100323.52;1869584;76;22739;-80
2021/05/11 14:48:23;;;;;;;7.17;2.17;;;;;;;21.70;44.83;100316.80;1862677;76;22786;-76
2021/05/11 14:50:58;;;;;;;7.37;2.20;;;;;;;21.32;46.43;100308.22;1870145;75;22737;-76
2021/05/11 14:53:34;;;;;;;9.43;2.27;;;;;;;21.00;47.65;100302.33;1863807;76;22646;-76
2021/05/11 14:56:11;;;;;;;7.00;2.15;;;;;;;20.73;48.61;100306.57;1870048;76;22757;-74
2021/05/11 14:58:56;;;;;;;5.17;2.27;;;;;;;20.36;49.65;100318.77;1846213;77;21133;-76
2021/05/11 15:01:31;;;;;;;10.90;2.65;;;;;;;19.84;51.07;100308.47;1853931;76;22647;-75
2021/05/11 15:04:13;;;;;;;6.17;2.50;;;;;;;19.66;51.83;100321.38;1885689;74;22776;-75
2021/05/11 15:06:48;;;;;;;10.68;2.50;;;;;;;19.61;52.19;100321.94;1874075;75;22682;-74
2021/05/11 15:09:23;;;;;;;7.55;2.62;;;;;;;19.37;52.61;100318.09;1851656;76;22721;-73
2021/05/11 15:12:10;;;;;;;5.90;2.25;;;;;;;19.11;52.98;100333.20;1820349;78;21147;-75
2021/05/11 15:14:46;;;;;;;7.12;2.90;;;;;;;18.92;53.35;100332.33;1856526;76;28343;-73
2021/05/11 15:19:59;;;;;;;8.75;2.98;;;;;;;18.76;53.92;100340.77;1849832;75;27725;-71
2021/05/11 15:22:34;;;;;;;9.95;3.10;;;;;;;18.75;53.96;100349.80;1853029;75;27739;-72
2021/05/11 15:25:10;;;;;;;6.40;2.55;;;;;;;18.74;54.12;100347.31;1870970;76;22626;-73
2021/05/11 15:27:46;;;;;;;6.10;3.00;;;;;;;18.62;54.16;100342.80;1839475;76;28360;-72
2021/05/11 15:30:34;;;;;;;6.95;2.77;;;;;;;18.47;54.09;100346.72;1807055;78;21108;-71
2021/05/11 15:33:11;;;;;;;7.50;2.90;;;;;;;18.39;54.49;100352.09;1860306;76;22645;-71
2021/05/11 15:35:46;;;;;;;6.78;2.70;;;;;;;18.28;54.50;100357.83;1860880;76;22752;-71
2021/05/11 15:38:22;;;;;;;6.58;2.98;;;;;;;18.20;54.61;100354.67;1881498;76;22597;-71
2021/05/11 15:40:58;;;;;;;7.22;3.02;;;;;;;18.20;54.65;100354.67;1871028;76;22669;-72
2021/05/11 15:43:35;;;;;;;9.80;3.08;;;;;;;18.21;54.65;100359.51;1865520;76;23277;-72
2021/05/11 15:46:10;;;;;;;6.25;3.10;;;;;;;18.19;54.58;100366.37;1881026;75;22689;-71
2021/05/11 15:48:46;;;;;;;6.35;2.70;;;;;;;18.17;54.42;100361.70;1887314;76;22650;-71
2021/05/11 15:51:21;;;;;;;7.37;2.98;;;;;;;18.09;54.28;100364.39;1882226;74;22741;-70
2021/05/11 15:53:57;;;;;;;7.95;2.77;;;;;;;18.08;54.17;100360.55;1876854;74;22721;-72
2021/05/11 15:56:33;;;;;;;9.77;3.30;;;;;;;18.01;54.26;100353.71;1854231;75;27776;-69
2021/05/11 15:59:19;;;;;;;10.18;3.05;;;;;;;18.01;54.14;100366.57;1827851;77;21097;-70
2021/05/11 16:01:55;;;;;;;8.80;3.58;;;;;;;18.08;53.96;100348.53;1883922;74;22698;-70
2021/05/11 16:04:30;;;;;;;9.53;3.62;;;;;;;17.96;53.96;100352.91;1862101;76;27851;-71
2021/05/11 16:07:16;;;;;;;9.03;3.52;;;;;;;17.88;54.04;100358.25;1832517;77;21186;-71
2021/05/11 16:09:51;;;;;;;5.62;3.10;;;;;;;17.87;54.19;100357.09;1870561;74;22647;-71
2021/05/11 16:12:27;;;;;;;5.87;3.20;;;;;;;17.78;54.34;100359.44;1882975;74;22784;-73
2021/05/11 16:15:13;;;;;;;8.78;3.33;;;;;;;17.66;54.22;100355.75;1880445;74;22666;-71
2021/05/11 16:17:59;;;;;;;5.70;3.62;;;;;;;17.59;54.32;100354.74;1848000;77;21165;-76
2021/05/11 16:20:37;;;;;;;8.85;3.45;;;;;;;17.56;54.29;100360.40;1885883;76;22736;-72
2021/05/11 16:23:18;;;;;;;6.22;3.52;;;;;;;17.56;54.48;100359.56;1813725;77;22769;-69
2021/05/11 16:25:53;;;;;;;11.80;3.55;;;;;;;17.50;54.51;100359.75;1882087;76;23274;-69
2021/05/11 16:28:29;;;;;;;7.60;3.75;;;;;;;17.43;54.67;100360.08;1857856;76;23266;-70
2021/05/11 16:31:05;;;;;;;10.40;3.90;;;;;;;17.41;54.73;100362.91;1895846;74;22742;-70
2021/05/11 16:33:40;;;;;;;7.97;3.93;;;;;;;17.40;54.70;100361.25;1812319;77;28030;-70
2021/05/11 16:36:15;;;;;;;12.05;3.70;;;;;;;17.52;54.66;100363.59;1869731;76;22632;-79
2021/05/11 16:39:02;;;;;;;10.25;4.00;;;;;;;17.57;54.44;100363.43;1817415;78;21515;-71
2021/05/11 16:41:38;;;;;;;8.45;3.25;;;;;;;17.58;54.38;100365.09;1866794;75;22664;-73
2021/05/11 16:44:13;;;;;;;7.12;3.42;;;;;;;17.61;54.41;100352.73;1801304;77;22767;-75
2021/05/11 16:46:49;;;;;;;6.03;4.15;;;;;;;17.69;54.15;100352.77;1868252;75;22672;-74
2021/05/11 16:49:25;;;;;;;6.03;3.70;;;;;;;17.74;54.10;100354.92;1807747;76;27874;-69
2021/05/11 16:52:00;;;;;;;6.75;3.25;;;;;;;17.79;54.07;100353.09;1868571;76;23192;-70